Time;durP1;ratioP1;P1;durP2;ratioP2;P2;SDS_P1;SDS_P2;PMS_P1;PMS_P2;Temp;Humidity;BMP_temperature;BMP_pressure;BME280_temperature;BME280_humidity;BME280_pressure;Samples;Min_cycle;Max_cycle;Signal;HPM_P1;HPM_P2
2022/04/27 00:00:19;;;;;;;12.57;7.70;;;;;;;;;;5044845;28;20490;-78
2022/04/27 00:02:44;;;;;;;9.30;6.93;;;;;;;;;;5061531;28;20335;-77
2022/04/27 00:05:10;;;;;;;9.43;6.93;;;;;;;;;;5044729;28;20212;-76
2022/04/27 00:07:35;;;;;;;11.25;7.40;;;;;;;;;;5061561;28;20017;-77
2022/04/27 00:10:01;;;;;;;10.23;7.28;;;;;;;;;;5051258;28;20511;-77
2022/04/27 00:12:27;;;;;;;10.20;7.53;;;;;;;;;;5048662;28;20020;-77
2022/04/27 00:14:52;;;;;;;10.07;7.72;;;;;;;;;;5043115;28;20089;-78
2022/04/27 00:17:17;;;;;;;9.20;7.15;;;;;;;;;;5064087;28;20196;-77
2022/04/27 00:19:43;;;;;;;8.85;7.50;;;;;;;;;;5051729;28;21204;-77
2022/04/27 00:22:08;;;;;;;11.05;7.22;;;;;;;;;;5057248;28;20029;-78
2022/04/27 00:24:33;;;;;;;8.57;7.45;;;;;;;;;;5026475;28;20045;-77
2022/04/27 00:27:00;;;;;;;10.48;7.32;;;;;;;;;;5050684;28;20069;-77
2022/04/27 00:29:25;;;;;;;8.27;7.13;;;;;;;;;;5037225;28;20021;-79
2022/04/27 00:31:51;;;;;;;10.63;7.13;;;;;;;;;;5059690;28;20032;-78
2022/04/27 00:34:16;;;;;;;8.75;7.28;;;;;;;;;;5058617;28;20403;-77
2022/04/27 00:36:41;;;;;;;10.77;7.03;;;;;;;;;;5051877;28;20079;-79
2022/04/27 00:39:07;;;;;;;9.75;7.55;;;;;;;;;;5042322;28;20541;-78
2022/04/27 00:41:32;;;;;;;14.23;7.75;;;;;;;;;;5043128;28;20029;-78
2022/04/27 00:43:57;;;;;;;10.43;7.28;;;;;;;;;;5049986;28;20107;-76
2022/04/27 00:46:22;;;;;;;10.57;7.90;;;;;;;;;;5063746;28;20106;-77
2022/04/27 00:48:48;;;;;;;11.38;7.43;;;;;;;;;;5063043;28;20175;-77
2022/04/27 00:51:14;;;;;;;10.10;7.70;;;;;;;;;;5059358;28;20035;-78
2022/04/27 00:53:40;;;;;;;13.20;7.18;;;;;;;;;;5065070;28;20016;-78
2022/04/27 00:56:06;;;;;;;12.60;7.40;;;;;;;;;;5061620;28;20020;-77
2022/04/27 00:58:32;;;;;;;9.38;6.97;;;;;;;;;;5062260;28;20009;-78
2022/04/27 01:00:58;;;;;;;9.85;7.15;;;;;;;;;;5045440;28;20471;-77
2022/04/27 01:03:23;;;;;;;14.07;7.57;;;;;;;;;;5062525;28;20322;-78
2022/04/27 01:05:49;;;;;;;9.52;7.25;;;;;;;;;;5041431;28;20364;-78
2022/04/27 01:08:15;;;;;;;9.07;6.93;;;;;;;;;;5059724;28;20025;-78
2022/04/27 01:10:42;;;;;;;11.35;7.07;;;;;;;;;;5061715;28;20464;-77
2022/04/27 01:13:08;;;;;;;10.25;6.78;;;;;;;;;;5061363;28;20070;-78
2022/04/27 01:15:33;;;;;;;7.30;6.00;;;;;;;;;;5055021;28;20135;-77
2022/04/27 01:17:59;;;;;;;11.13;7.07;;;;;;;;;;5062139;28;20569;-78
2022/04/27 01:20:24;;;;;;;9.95;7.00;;;;;;;;;;5057292;28;20024;-78
2022/04/27 01:22:50;;;;;;;10.35;6.85;;;;;;;;;;5056950;28;20191;-78
2022/04/27 01:25:19;;;;;;;11.88;7.05;;;;;;;;;;5054325;28;20115;-78
2022/04/27 01:27:44;;;;;;;7.97;6.55;;;;;;;;;;5057034;28;20028;-77
2022/04/27 01:30:12;;;;;;;10.18;6.68;;;;;;;;;;5036667;28;20021;-77
2022/04/27 01:32:38;;;;;;;11.55;6.72;;;;;;;;;;5024754;28;20029;-77
2022/04/27 01:35:03;;;;;;;10.90;6.88;;;;;;;;;;5038200;28;20515;-78
2022/04/27 01:40:14;;;;;;;8.30;5.82;;;;;;;;;;5040511;28;20074;-77
2022/04/27 01:42:40;;;;;;;11.73;6.88;;;;;;;;;;5024045;28;20032;-77
2022/04/27 01:45:06;;;;;;;10.07;6.80;;;;;;;;;;5042357;28;20032;-78
2022/04/27 01:47:32;;;;;;;11.10;6.80;;;;;;;;;;5045924;28;20448;-78
2022/04/27 01:49:57;;;;;;;11.98;6.85;;;;;;;;;;5059699;28;20103;-77
2022/04/27 01:55:07;;;;;;;7.25;6.55;;;;;;;;;;5041867;28;20112;-78
2022/04/27 01:57:33;;;;;;;9.18;6.88;;;;;;;;;;5022079;28;20029;-78
2022/04/27 01:59:58;;;;;;;10.75;6.80;;;;;;;;;;5039562;28;20371;-78
2022/04/27 02:02:23;;;;;;;10.00;6.63;;;;;;;;;;5031778;28;20094;-79
2022/04/27 02:04:49;;;;;;;10.00;7.00;;;;;;;;;;5068414;28;20037;-77
2022/04/27 02:07:14;;;;;;;10.75;7.70;;;;;;;;;;5057281;28;20445;-77
2022/04/27 02:09:39;;;;;;;11.20;6.93;;;;;;;;;;5056024;28;20466;-78
2022/04/27 02:12:05;;;;;;;9.77;6.88;;;;;;;;;;5040606;28;20112;-78
2022/04/27 02:14:30;;;;;;;10.98;7.32;;;;;;;;;;5038305;28;20111;-78
2022/04/27 02:16:55;;;;;;;10.50;7.15;;;;;;;;;;5057703;28;20055;-77
2022/04/27 02:19:21;;;;;;;9.77;7.10;;;;;;;;;;5062294;28;20372;-77
2022/04/27 02:21:47;;;;;;;10.45;6.40;;;;;;;;;;5043241;28;20115;-78
2022/04/27 02:24:12;;;;;;;10.85;6.82;;;;;;;;;;5060904;28;20132;-78
2022/04/27 02:26:37;;;;;;;9.48;5.80;;;;;;;;;;5043989;28;20028;-78
2022/04/27 02:29:03;;;;;;;8.02;6.18;;;;;;;;;;5046139;28;20317;-78
2022/04/27 02:31:28;;;;;;;8.35;6.22;;;;;;;;;;5063523;28;20060;-77
2022/04/27 02:33:54;;;;;;;7.97;6.03;;;;;;;;;;5047764;28;20032;-78
2022/04/27 02:36:21;;;;;;;9.10;7.10;;;;;;;;;;5050745;28;20135;-77
2022/04/27 02:38:46;;;;;;;9.98;6.68;;;;;;;;;;5060544;28;20024;-78
2022/04/27 02:41:12;;;;;;;12.20;7.03;;;;;;;;;;5041334;28;20048;-78
2022/04/27 02:43:38;;;;;;;9.98;6.68;;;;;;;;;;5042430;28;20083;-78
2022/04/27 02:46:03;;;;;;;11.30;6.72;;;;;;;;;;5046201;28;20021;-78
2022/04/27 02:48:31;;;;;;;9.43;6.10;;;;;;;;;;5045260;28;20028;-78
2022/04/27 02:53:40;;;;;;;8.75;6.55;;;;;;;;;;5055336;28;20047;-78
2022/04/27 02:56:06;;;;;;;9.05;6.70;;;;;;;;;;5053819;28;20024;-77
2022/04/27 02:58:38;;;;;;;9.55;7.50;;;;;;;;;;5046631;28;20585;-76
2022/04/27 03:01:04;;;;;;;10.15;7.13;;;;;;;;;;5063326;28;20074;-78
2022/04/27 03:03:29;;;;;;;8.32;6.22;;;;;;;;;;5044672;28;20028;-76
2022/04/27 03:05:55;;;;;;;10.38;6.65;;;;;;;;;;5059802;28;20016;-77
2022/04/27 03:08:23;;;;;;;10.35;7.10;;;;;;;;;;5031785;28;20081;-78
2022/04/27 03:10:48;;;;;;;9.93;6.38;;;;;;;;;;5065857;28;20013;-77
2022/04/27 03:13:15;;;;;;;8.05;6.53;;;;;;;;;;5051196;28;20166;-78
2022/04/27 03:15:40;;;;;;;9.35;7.28;;;;;;;;;;5028592;28;20028;-77
2022/04/27 03:18:19;;;;;;;10.68;6.85;;;;;;;;;;5049490;28;20123;-79
2022/04/27 03:20:45;;;;;;;10.13;6.75;;;;;;;;;;5048690;28;20039;-77
2022/04/27 03:23:10;;;;;;;10.73;7.15;;;;;;;;;;5048170;28;20024;-78
2022/04/27 03:25:35;;;;;;;10.18;6.82;;;;;;;;;;5043838;28;20033;-78
2022/04/27 03:28:00;;;;;;;8.50;6.20;;;;;;;;;;5067149;28;20386;-78
2022/04/27 03:30:26;;;;;;;8.73;6.78;;;;;;;;;;5047957;28;20382;-79
2022/04/27 03:32:51;;;;;;;9.27;6.72;;;;;;;;;;5052615;28;20456;-78
2022/04/27 03:35:20;;;;;;;9.23;6.57;;;;;;;;;;5043664;28;20055;-78
2022/04/27 03:37:45;;;;;;;10.55;7.13;;;;;;;;;;5054067;28;20020;-78
2022/04/27 03:40:24;;;;;;;10.55;7.30;;;;;;;;;;5063985;28;20090;-77
2022/04/27 03:42:50;;;;;;;10.52;6.85;;;;;;;;;;5046030;28;20025;-78
2022/04/27 03:45:20;;;;;;;8.98;6.50;;;;;;;;;;5042254;28;20017;-78
2022/04/27 03:47:48;;;;;;;9.95;6.25;;;;;;;;;;5046460;28;20028;-78
2022/04/27 03:50:14;;;;;;;9.38;7.53;;;;;;;;;;5051595;28;20400;-78
2022/04/27 03:52:40;;;;;;;10.70;7.95;;;;;;;;;;5043747;28;20036;-78
2022/04/27 03:55:06;;;;;;;9.35;6.82;;;;;;;;;;5032764;28;20451;-78
2022/04/27 03:57:31;;;;;;;11.30;7.28;;;;;;;;;;5053295;28;20116;-77
2022/04/27 03:59:56;;;;;;;14.25;7.03;;;;;;;;;;5055330;28;20086;-76
2022/04/27 04:02:24;;;;;;;10.23;7.20;;;;;;;;;;5048417;28;20123;-77
2022/04/27 04:04:49;;;;;;;9.90;7.47;;;;;;;;;;5061385;28;20038;-77
2022/04/27 04:07:15;;;;;;;9.85;7.25;;;;;;;;;;5052635;28;20025;-77
2022/04/27 04:09:40;;;;;;;7.80;6.68;;;;;;;;;;5055808;28;20170;-77
2022/04/27 04:12:06;;;;;;;9.10;6.57;;;;;;;;;;5050870;28;20025;-79
2022/04/27 04:14:31;;;;;;;8.52;6.28;;;;;;;;;;5041616;28;20025;-78
2022/04/27 04:16:56;;;;;;;9.27;6.20;;;;;;;;;;5065100;28;20079;-78
2022/04/27 04:19:23;;;;;;;7.80;5.78;;;;;;;;;;5057629;28;20127;-78
2022/04/27 04:21:49;;;;;;;10.63;5.68;;;;;;;;;;5045452;28;20032;-77
2022/04/27 04:24:14;;;;;;;10.23;5.90;;;;;;;;;;5062623;28;20251;-78
2022/04/27 04:29:24;;;;;;;8.60;5.60;;;;;;;;;;5060543;28;20113;-77
2022/04/27 04:31:52;;;;;;;9.45;5.63;;;;;;;;;;5025772;28;20481;-77
2022/04/27 04:34:18;;;;;;;9.77;5.53;;;;;;;;;;5064187;28;20095;-77
2022/04/27 04:36:43;;;;;;;6.93;5.32;;;;;;;;;;5043732;28;20461;-78
2022/04/27 04:39:08;;;;;;;9.85;5.40;;;;;;;;;;5044575;28;20033;-78
2022/04/27 04:41:34;;;;;;;7.93;5.70;;;;;;;;;;5041214;28;20033;-77
2022/04/27 04:43:59;;;;;;;8.55;5.28;;;;;;;;;;5030517;28;20032;-78
2022/04/27 04:46:27;;;;;;;7.78;4.93;;;;;;;;;;5043254;28;20025;-78
2022/04/27 04:48:52;;;;;;;7.93;4.63;;;;;;;;;;5042434;28;20094;-77
2022/04/27 04:51:17;;;;;;;8.60;4.97;;;;;;;;;;5039889;28;20112;-77
2022/04/27 04:53:42;;;;;;;7.85;4.60;;;;;;;;;;5039029;28;20037;-78
2022/04/27 04:56:08;;;;;;;8.95;5.20;;;;;;;;;;5023749;28;20476;-77
2022/04/27 04:58:36;;;;;;;7.15;4.50;;;;;;;;;;5040794;28;20116;-77
2022/04/27 05:01:03;;;;;;;7.28;5.05;;;;;;;;;;5044452;28;20093;-78
2022/04/27 05:03:36;;;;;;;9.85;5.68;;;;;;;;;;5060874;28;20059;-77
2022/04/27 05:06:01;;;;;;;;;;;;;;;;;;5033541;28;20474;-78
2022/04/27 05:08:35;;;;;;;7.70;5.82;;;;;;;;;;5043453;28;20348;-79
2022/04/27 05:11:00;;;;;;;8.48;5.70;;;;;;;;;;5040057;28;20119;-78
2022/04/27 05:13:52;;;;;;;8.32;5.13;;;;;;;;;;5042022;28;20113;-77
2022/04/27 05:16:20;;;;;;;8.07;5.05;;;;;;;;;;5055197;28;20123;-77
2022/04/27 05:18:45;;;;;;;8.13;4.72;;;;;;;;;;5024187;28;20021;-77
2022/04/27 05:21:11;;;;;;;8.65;4.90;;;;;;;;;;5048982;28;20058;-77
2022/04/27 05:23:36;;;;;;;6.35;4.32;;;;;;;;;;5045833;28;20021;-77
2022/04/27 05:26:03;;;;;;;7.53;4.72;;;;;;;;;;5066921;28;20021;-76
2022/04/27 05:31:54;;;;;;;6.80;4.65;;;;;;;;;;5049045;28;20066;-77
2022/04/27 05:34:08;;;;;;;6.22;4.43;;;;;;;;;;5045392;28;20082;-78
2022/04/27 05:36:33;;;;;;;7.13;4.55;;;;;;;;;;5054186;28;20017;-77
2022/04/27 05:38:58;;;;;;;5.43;4.50;;;;;;;;;;5061163;28;20020;-78
2022/04/27 05:41:26;;;;;;;9.07;5.15;;;;;;;;;;5059925;28;20032;-78
2022/04/27 05:43:51;;;;;;;8.93;4.93;;;;;;;;;;5055620;28;20450;-77
2022/04/27 05:46:17;;;;;;;6.65;4.47;;;;;;;;;;5059203;28;20023;-78
2022/04/27 05:48:42;;;;;;;7.65;4.32;;;;;;;;;;5058981;28;20032;-78
2022/04/27 05:51:07;;;;;;;5.95;4.90;;;;;;;;;;5043539;28;20021;-79
2022/04/27 05:53:43;;;;;;;7.00;4.07;;;;;;;;;;5059394;28;20032;-78
2022/04/27 05:56:09;;;;;;;6.75;4.93;;;;;;;;;;5051537;28;20036;-77
2022/04/27 05:58:37;;;;;;;7.40;4.68;;;;;;;;;;5059457;28;20024;-77
2022/04/27 06:01:02;;;;;;;7.43;4.72;;;;;;;;;;5059486;28;20024;-79
2022/04/27 06:03:32;;;;;;;7.93;4.43;;;;;;;;;;5047022;28;20124;-78
2022/04/27 06:05:57;;;;;;;9.93;4.70;;;;;;;;;;5029212;28;20025;-79
2022/04/27 06:08:22;;;;;;;7.18;4.43;;;;;;;;;;5048205;28;20032;-77
2022/04/27 06:10:48;;;;;;;9.25;4.45;;;;;;;;;;5053247;28;20481;-79
2022/04/27 06:13:13;;;;;;;8.80;4.80;;;;;;;;;;5046972;28;20080;-77
2022/04/27 06:15:39;;;;;;;9.00;4.13;;;;;;;;;;5046149;28;20438;-78
2022/04/27 06:18:04;;;;;;;8.20;4.80;;;;;;;;;;5048043;28;20423;-78
2022/04/27 06:20:31;;;;;;;7.13;4.40;;;;;;;;;;5054373;28;20056;-78
2022/04/27 06:22:57;;;;;;;6.65;5.00;;;;;;;;;;5066497;28;20038;-79
2022/04/27 06:25:25;;;;;;;8.07;4.72;;;;;;;;;;5063665;28;20147;-78
2022/04/27 06:27:50;;;;;;;7.43;4.38;;;;;;;;;;5036236;28;20411;-77
2022/04/27 06:30:16;;;;;;;8.77;4.72;;;;;;;;;;5065933;28;20013;-78
2022/04/27 06:32:41;;;;;;;5.65;4.30;;;;;;;;;;5060134;28;20451;-79
2022/04/27 06:35:06;;;;;;;6.70;4.72;;;;;;;;;;5026860;28;20107;-78
2022/04/27 06:37:36;;;;;;;8.50;4.35;;;;;;;;;;5045771;28;20032;-77
2022/04/27 06:40:01;;;;;;;11.07;3.92;;;;;;;;;;5035637;28;20024;-78
2022/04/27 06:42:26;;;;;;;7.22;3.92;;;;;;;;;;5064786;28;20386;-79
2022/04/27 06:44:51;;;;;;;7.20;3.80;;;;;;;;;;5064676;28;20271;-76
2022/04/27 06:47:17;;;;;;;4.57;3.38;;;;;;;;;;5048857;28;20025;-77
2022/04/27 06:49:42;;;;;;;10.00;3.92;;;;;;;;;;5063925;28;20054;-78
2022/04/27 06:52:07;;;;;;;7.43;4.05;;;;;;;;;;5049408;28;20400;-77
2022/04/27 06:54:38;;;;;;;6.30;4.05;;;;;;;;;;5067032;28;20335;-76
2022/04/27 06:57:03;;;;;;;6.88;4.05;;;;;;;;;;5066923;28;20025;-77
2022/04/27 06:59:28;;;;;;;6.30;4.15;;;;;;;;;;5066437;28;20437;-78
2022/04/27 07:01:56;;;;;;;5.15;3.72;;;;;;;;;;5052919;28;20458;-76
2022/04/27 07:04:22;;;;;;;8.77;3.88;;;;;;;;;;5046671;28;20123;-78
2022/04/27 07:06:47;;;;;;;11.70;3.95;;;;;;;;;;5045476;28;20182;-79
2022/04/27 07:09:12;;;;;;;6.20;4.20;;;;;;;;;;5064488;28;20032;-77
2022/04/27 07:11:40;;;;;;;8.10;3.92;;;;;;;;;;5044659;28;20078;-77
2022/04/27 07:14:06;;;;;;;6.80;4.18;;;;;;;;;;5046656;28;20068;-77
2022/04/27 07:16:31;;;;;;;7.85;3.83;;;;;;;;;;5044123;28;20141;-78
2022/04/27 07:18:56;;;;;;;8.45;4.20;;;;;;;;;;5045643;28;20090;-78
2022/04/27 07:21:21;;;;;;;8.30;4.15;;;;;;;;;;5032080;28;20075;-78
2022/04/27 07:23:47;;;;;;;9.25;4.25;;;;;;;;;;5046725;28;20368;-77
2022/04/27 07:26:12;;;;;;;9.68;4.55;;;;;;;;;;5042637;28;20017;-78
2022/04/27 07:28:41;;;;;;;9.93;4.45;;;;;;;;;;5044227;28;20051;-78
2022/04/27 07:31:07;;;;;;;6.28;4.00;;;;;;;;;;5061508;28;20452;-78
2022/04/27 07:33:34;;;;;;;4.95;3.95;;;;;;;;;;5064535;28;20038;-78
2022/04/27 07:35:59;;;;;;;6.32;3.67;;;;;;;;;;5061179;28;20032;-78
2022/04/27 07:38:24;;;;;;;6.60;4.28;;;;;;;;;;5067427;28;20028;-77
2022/04/27 07:40:49;;;;;;;6.70;3.88;;;;;;;;;;5065428;28;20088;-77
2022/04/27 07:43:15;;;;;;;8.48;4.00;;;;;;;;;;5069479;28;20064;-77
2022/04/27 07:45:44;;;;;;;6.53;3.88;;;;;;;;;;5054176;28;20020;-77
2022/04/27 07:48:09;;;;;;;5.32;3.47;;;;;;;;;;5066446;28;20108;-77
2022/04/27 07:50:35;;;;;;;8.00;3.60;;;;;;;;;;5042242;28;20107;-78
2022/04/27 07:53:00;;;;;;;7.53;3.83;;;;;;;;;;5031073;28;20029;-78
2022/04/27 07:55:25;;;;;;;5.03;3.38;;;;;;;;;;5063341;28;20367;-78
2022/04/27 07:57:51;;;;;;;5.50;3.25;;;;;;;;;;5054767;28;20025;-78
2022/04/27 08:00:16;;;;;;;7.57;3.55;;;;;;;;;;5042038;28;20051;-78
2022/04/27 08:02:41;;;;;;;10.73;3.58;;;;;;;;;;5031038;28;20108;-78
2022/04/27 08:05:07;;;;;;;6.70;3.75;;;;;;;;;;5055993;28;20023;-77
2022/04/27 08:07:37;;;;;;;5.60;3.50;;;;;;;;;;5052317;28;20021;-77
2022/04/27 08:10:09;;;;;;;7.35;3.63;;;;;;;;;;5051307;28;20319;-78
2022/04/27 08:12:35;;;;;;;7.13;3.50;;;;;;;;;;5049013;28;20078;-77
2022/04/27 08:15:00;;;;;;;7.22;3.42;;;;;;;;;;5043520;28;20025;-77
2022/04/27 08:17:26;;;;;;;5.97;3.10;;;;;;;;;;5052056;28;20051;-78
2022/04/27 08:21:13;;;;;;;6.22;3.08;;;;;;;;;;5061551;28;20036;-77
2022/04/27 08:22:36;;;;;;;5.68;2.55;;;;;;;;;;5066412;28;20028;-79
2022/04/27 08:25:01;;;;;;;3.22;2.25;;;;;;;;;;5045833;28;20381;-79
2022/04/27 08:27:27;;;;;;;3.53;2.40;;;;;;;;;;5061485;28;20089;-78
2022/04/27 08:29:52;;;;;;;5.10;2.40;;;;;;;;;;5060777;28;20297;-80
2022/04/27 08:32:17;;;;;;;4.70;2.35;;;;;;;;;;5064391;28;20046;-77
2022/04/27 08:34:43;;;;;;;3.40;2.22;;;;;;;;;;5061343;28;20348;-76
2022/04/27 08:37:08;;;;;;;4.55;2.13;;;;;;;;;;5046928;28;20062;-78
2022/04/27 08:39:34;;;;;;;7.00;2.25;;;;;;;;;;5064663;28;20050;-78
2022/04/27 08:41:59;;;;;;;6.30;2.25;;;;;;;;;;5043320;28;20038;-78
2022/04/27 08:44:25;;;;;;;3.58;2.00;;;;;;;;;;5060899;28;20028;-77
2022/04/27 08:46:50;;;;;;;3.42;2.20;;;;;;;;;;5061862;28;20036;-76
2022/04/27 08:49:16;;;;;;;3.85;2.50;;;;;;;;;;5064946;28;20025;-77
2022/04/27 08:51:41;;;;;;;3.95;2.50;;;;;;;;;;5049654;28;20021;-77
2022/04/27 08:54:06;;;;;;;3.17;1.98;;;;;;;;;;5044108;28;20031;-77
2022/04/27 08:56:35;;;;;;;3.65;2.10;;;;;;;;;;5040603;28;20060;-77
2022/04/27 08:59:02;;;;;;;5.03;1.98;;;;;;;;;;5041228;28;20173;-76
2022/04/27 09:01:28;;;;;;;7.10;2.28;;;;;;;;;;5063954;28;20036;-77
2022/04/27 09:04:10;;;;;;;5.03;2.00;;;;;;;;;;5048738;28;20506;-78
2022/04/27 09:06:41;;;;;;;5.50;1.83;;;;;;;;;;5054551;28;20108;-71
2022/04/27 09:09:10;;;;;;;5.15;2.50;;;;;;;;;;5055819;28;20254;-70
2022/04/27 09:11:37;;;;;;;9.23;2.35;;;;;;;;;;5039356;28;20390;-70
2022/04/27 09:14:03;;;;;;;7.68;2.10;;;;;;;;;;5045642;28;20471;-71
2022/04/27 09:22:06;;;;;;;7.25;2.40;;;;;;;;;;5061504;28;20091;-71
2022/04/27 09:24:49;;;;;;;7.47;2.47;;;;;;;;;;5041616;28;20040;-71
2022/04/27 09:27:18;;;;;;;6.32;2.40;;;;;;;;;;5056608;28;20016;-70
2022/04/27 09:29:54;;;;;;;6.15;3.25;;;;;;;;;;5053674;28;20057;-69
2022/04/27 09:32:19;;;;;;;8.63;3.72;;;;;;;;;;5058989;28;20061;-71
2022/04/27 09:34:46;;;;;;;14.60;9.18;;;;;;;;;;5038415;28;20056;-72
2022/04/27 09:37:13;;;;;;;10.45;5.30;;;;;;;;;;5037952;28;20025;-71
2022/04/27 09:39:38;;;;;;;8.77;3.15;;;;;;;;;;5054205;28;20066;-71
2022/04/27 09:42:04;;;;;;;8.10;2.10;;;;;;;;;;5053275;28;20812;-71
2022/04/27 09:44:30;;;;;;;7.18;2.95;;;;;;;;;;5045330;28;20032;-70
2022/04/27 09:46:56;;;;;;;5.50;2.95;;;;;;;;;;5039202;28;20013;-72
2022/04/27 09:49:22;;;;;;;8.45;2.50;;;;;;;;;;5038951;28;20087;-71
2022/04/27 09:51:52;;;;;;;5.85;2.60;;;;;;;;;;5035144;28;20083;-70
2022/04/27 09:54:21;;;;;;;12.50;3.38;;;;;;;;;;5035734;28;20070;-71
2022/04/27 09:56:56;;;;;;;7.45;2.78;;;;;;;;;;5039123;28;20024;-71
2022/04/27 09:59:32;;;;;;;11.02;3.03;;;;;;;;;;5044243;28;20028;-69
2022/04/27 10:01:58;;;;;;;8.77;2.90;;;;;;;;;;5057852;28;20021;-71
2022/04/27 10:04:28;;;;;;;7.63;2.70;;;;;;;;;;5041692;28;20032;-70
2022/04/27 10:06:56;;;;;;;9.38;2.92;;;;;;;;;;5034174;28;20057;-70
2022/04/27 10:09:21;;;;;;;13.07;3.25;;;;;;;;;;5042911;28;20027;-70
2022/04/27 10:11:46;;;;;;;8.63;3.25;;;;;;;;;;5053185;28;20096;-71
2022/04/27 10:14:11;;;;;;;7.35;2.50;;;;;;;;;;5054247;28;20336;-72
2022/04/27 10:16:37;;;;;;;7.85;2.13;;;;;;;;;;5037430;28;20052;-71
2022/04/27 10:19:07;;;;;;;8.13;2.88;;;;;;;;;;5055383;28;20058;-73
2022/04/27 10:24:41;;;;;;;7.35;2.80;;;;;;;;;;5054900;28;20051;-72
2022/04/27 10:27:22;;;;;;;10.25;3.10;;;;;;;;;;5051139;28;20025;-71
2022/04/27 10:30:07;;;;;;;7.78;2.90;;;;;;;;;;5036204;28;20067;-72
2022/04/27 10:32:32;;;;;;;9.60;2.92;;;;;;;;;;5057558;28;20119;-71
2022/04/27 10:35:19;;;;;;;8.90;2.80;;;;;;;;;;5054218;28;20103;-73
2022/04/27 10:37:58;;;;;;;7.18;2.60;;;;;;;;;;5059804;28;20093;-74
2022/04/27 10:40:42;;;;;;;8.27;2.55;;;;;;;;;;5054302;28;20032;-74
2022/04/27 10:43:07;;;;;;;11.00;2.85;;;;;;;;;;5038178;28;20055;-72
2022/04/27 10:45:33;;;;;;;13.07;4.07;;;;;;;;;;5036994;28;20056;-75
2022/04/27 10:47:58;;;;;;;8.68;3.20;;;;;;;;;;5038283;28;20436;-76
2022/04/27 10:50:28;;;;;;;12.07;2.45;;;;;;;;;;5039119;28;20014;-75
2022/04/27 10:52:55;;;;;;;8.57;2.47;;;;;;;;;;5041677;28;20476;-75
2022/04/27 10:55:40;;;;;;;5.60;2.20;;;;;;;;;;5052388;28;20395;-75
2022/04/27 10:58:24;;;;;;;9.55;3.13;;;;;;;;;;5050066;28;20442;-75
2022/04/27 11:01:15;;;;;;;8.57;2.80;;;;;;;;;;5042355;28;20197;-76
2022/04/27 11:03:40;;;;;;;4.90;2.30;;;;;;;;;;5041062;28;20235;-76
2022/04/27 11:06:08;;;;;;;9.10;2.70;;;;;;;;;;5020559;28;20049;-76
2022/04/27 11:08:43;;;;;;;9.95;3.60;;;;;;;;;;5042191;28;20020;-77
2022/04/27 11:11:09;;;;;;;8.25;2.45;;;;;;;;;;5045204;28;20013;-73
2022/04/27 11:13:36;;;;;;;6.13;2.25;;;;;;;;;;5046563;28;20025;-73
2022/04/27 11:16:11;;;;;;;7.40;2.80;;;;;;;;;;5064967;28;20115;-74
2022/04/27 11:18:56;;;;;;;7.57;2.92;;;;;;;;;;5066311;28;20562;-73
2022/04/27 11:21:23;;;;;;;8.02;2.72;;;;;;;;;;5045623;28;20060;-73
2022/04/27 11:23:48;;;;;;;6.55;2.40;;;;;;;;;;5048094;28;20115;-73
2022/04/27 11:26:14;;;;;;;10.93;2.50;;;;;;;;;;5043644;28;20558;-73
2022/04/27 11:28:41;;;;;;;6.45;2.65;;;;;;;;;;5044474;28;20432;-74
2022/04/27 11:31:06;;;;;;;12.20;2.50;;;;;;;;;;5044057;28;20116;-75
2022/04/27 11:33:36;;;;;;;7.15;2.45;;;;;;;;;;5066092;28;20099;-74
2022/04/27 11:36:01;;;;;;;5.97;2.28;;;;;;;;;;5063219;28;20025;-74
2022/04/27 11:38:34;;;;;;;12.00;3.55;;;;;;;;;;5065594;28;20111;-73
2022/04/27 11:41:01;;;;;;;7.15;2.83;;;;;;;;;;5054702;28;20033;-74
2022/04/27 11:43:27;;;;;;;9.68;3.00;;;;;;;;;;5045882;28;20036;-72
2022/04/27 11:45:54;;;;;;;10.00;2.60;;;;;;;;;;5027561;28;20094;-72
2022/04/27 11:48:22;;;;;;;9.60;2.78;;;;;;;;;;5045973;28;20336;-73
2022/04/27 11:50:48;;;;;;;6.53;2.42;;;;;;;;;;5040671;28;20142;-72
2022/04/27 11:53:13;;;;;;;8.43;2.55;;;;;;;;;;5044212;28;20021;-72
2022/04/27 11:55:39;;;;;;;8.27;2.70;;;;;;;;;;5024751;28;20035;-73
2022/04/27 11:58:05;;;;;;;6.55;2.17;;;;;;;;;;5046788;28;20090;-73
2022/04/27 12:00:31;;;;;;;9.02;2.72;;;;;;;;;;5041315;28;20101;-74
2022/04/27 12:03:03;;;;;;;9.43;2.53;;;;;;;;;;5029451;28;20057;-73
2022/04/27 12:05:49;;;;;;;9.38;2.58;;;;;;;;;;5042517;28;20495;-73
2022/04/27 12:08:18;;;;;;;10.60;3.13;;;;;;;;;;5045887;28;20040;-73
2022/04/27 12:10:44;;;;;;;10.23;3.45;;;;;;;;;;5043241;28;20482;-74
2022/04/27 12:13:09;;;;;;;11.77;2.88;;;;;;;;;;5044583;28;20526;-73
2022/04/27 12:15:35;;;;;;;7.82;2.72;;;;;;;;;;5042495;28;20027;-72
2022/04/27 12:18:06;;;;;;;8.85;2.97;;;;;;;;;;5024373;28;20060;-72
2022/04/27 12:20:39;;;;;;;11.02;2.78;;;;;;;;;;5020440;28;20033;-73
2022/04/27 12:23:05;;;;;;;;;;;;;;;;;;5024217;28;20114;-71
2022/04/27 12:25:32;;;;;;;10.48;3.00;;;;;;;;;;5021384;28;20121;-73
2022/04/27 12:27:57;;;;;;;8.85;3.10;;;;;;;;;;5024292;28;20112;-73
2022/04/27 12:30:23;;;;;;;10.02;3.15;;;;;;;;;;5018687;28;20145;-74
2022/04/27 12:32:48;;;;;;;14.27;3.33;;;;;;;;;;5025911;28;20036;-73
2022/04/27 12:38:07;;;;;;;11.68;3.03;;;;;;;;;;5024588;28;20059;-72
2022/04/27 12:40:33;;;;;;;21.27;2.97;;;;;;;;;;5019214;28;20434;-72
2022/04/27 12:43:08;;;;;;;11.70;3.30;;;;;;;;;;5025680;28;20472;-72
2022/04/27 12:45:34;;;;;;;6.95;2.88;;;;;;;;;;5005195;28;20075;-73
2022/04/27 12:48:00;;;;;;;9.38;2.90;;;;;;;;;;5027080;28;20423;-71
2022/04/27 12:50:25;;;;;;;8.07;2.75;;;;;;;;;;5018472;28;20904;-72
2022/04/27 12:52:50;;;;;;;9.23;2.38;;;;;;;;;;5007219;28;20368;-73
2022/04/27 12:55:17;;;;;;;9.27;2.25;;;;;;;;;;5019855;28;20504;-71
2022/04/27 12:57:43;;;;;;;13.95;2.70;;;;;;;;;;5023837;28;20494;-72
2022/04/27 13:00:09;;;;;;;10.20;2.20;;;;;;;;;;5020633;28;20026;-72
2022/04/27 13:02:35;;;;;;;7.40;2.47;;;;;;;;;;5022184;28;20033;-71
2022/04/27 13:05:00;;;;;;;10.35;2.90;;;;;;;;;;5004335;28;20021;-73
2022/04/27 13:07:25;;;;;;;10.82;2.80;;;;;;;;;;5023767;28;20037;-71
2022/04/27 13:12:36;;;;;;;9.05;2.78;;;;;;;;;;5020806;28;20591;-72
2022/04/27 13:15:02;;;;;;;10.45;2.50;;;;;;;;;;5023105;28;20444;-72
2022/04/27 13:17:27;;;;;;;11.13;3.25;;;;;;;;;;5004220;28;20049;-72
2022/04/27 13:19:52;;;;;;;9.23;2.10;;;;;;;;;;5020819;28;20717;-72
2022/04/27 13:22:18;;;;;;;8.40;2.78;;;;;;;;;;5023599;28;20021;-72
2022/04/27 13:24:43;;;;;;;9.88;2.63;;;;;;;;;;5024396;28;20159;-73
2022/04/27 13:27:09;;;;;;;8.50;2.53;;;;;;;;;;5022397;28;20028;-72
2022/04/27 13:29:35;;;;;;;8.95;2.30;;;;;;;;;;5002984;28;20121;-73
2022/04/27 13:32:00;;;;;;;8.65;2.60;;;;;;;;;;5022816;28;20543;-73
2022/04/27 13:34:27;;;;;;;8.32;2.35;;;;;;;;;;5020549;28;20508;-72
2022/04/27 13:36:52;;;;;;;9.40;2.50;;;;;;;;;;5005173;28;20503;-72
2022/04/27 13:39:17;;;;;;;9.52;2.80;;;;;;;;;;5022302;28;20026;-73
2022/04/27 13:41:43;;;;;;;9.38;2.55;;;;;;;;;;5019981;28;20033;-73
2022/04/27 13:44:10;;;;;;;5.78;2.30;;;;;;;;;;5002611;28;20057;-72
2022/04/27 13:46:36;;;;;;;9.90;3.00;;;;;;;;;;5021688;28;20067;-72
2022/04/27 13:49:02;;;;;;;8.27;2.22;;;;;;;;;;5024087;28;20276;-71
2022/04/27 13:51:27;;;;;;;9.38;3.08;;;;;;;;;;5016844;28;20210;-72
2022/04/27 13:53:53;;;;;;;6.55;2.50;;;;;;;;;;5022507;28;20056;-73
2022/04/27 13:56:18;;;;;;;8.07;2.67;;;;;;;;;;5019127;28;20021;-72
2022/04/27 13:58:44;;;;;;;8.82;2.78;;;;;;;;;;5019459;28;20079;-72
2022/04/27 14:01:10;;;;;;;9.35;3.20;;;;;;;;;;5022047;28;20036;-73
2022/04/27 14:03:36;;;;;;;8.18;2.85;;;;;;;;;;5020661;28;20211;-73
2022/04/27 14:06:01;;;;;;;9.43;2.67;;;;;;;;;;5022403;28;20480;-72
2022/04/27 14:08:26;;;;;;;8.75;2.20;;;;;;;;;;5003270;28;20021;-73
2022/04/27 14:10:54;;;;;;;10.55;2.85;;;;;;;;;;5002867;28;20352;-74
2022/04/27 14:13:21;;;;;;;7.38;2.40;;;;;;;;;;5021122;28;20032;-71
2022/04/27 14:18:31;;;;;;;10.10;2.80;;;;;;;;;;5020600;28;20229;-71
2022/04/27 14:20:57;;;;;;;8.70;2.08;;;;;;;;;;5004326;28;20132;-71
2022/04/27 14:23:22;;;;;;;7.78;2.75;;;;;;;;;;5021733;28;20407;-72
2022/04/27 14:25:48;;;;;;;12.32;3.40;;;;;;;;;;5024452;28;20134;-73
2022/04/27 14:28:14;;;;;;;8.63;2.42;;;;;;;;;;5025659;28;20014;-72
2022/04/27 14:30:40;;;;;;;9.73;2.92;;;;;;;;;;5021830;28;20468;-72
2022/04/27 14:33:08;;;;;;;8.32;2.65;;;;;;;;;;5025069;28;20289;-73
2022/04/27 14:35:33;;;;;;;11.35;2.90;;;;;;;;;;5024785;28;20217;-73
2022/04/27 14:37:59;;;;;;;8.70;2.40;;;;;;;;;;5028904;28;20449;-72
2022/04/27 14:40:24;;;;;;;9.27;2.55;;;;;;;;;;5021533;28;20116;-71
2022/04/27 14:42:51;;;;;;;8.35;3.00;;;;;;;;;;5025571;28;20100;-72
2022/04/27 14:45:17;;;;;;;9.35;2.63;;;;;;;;;;5020987;28;20018;-72
2022/04/27 14:47:42;;;;;;;8.10;2.80;;;;;;;;;;5026186;28;20396;-72
2022/04/27 14:50:08;;;;;;;9.68;2.92;;;;;;;;;;5023827;28;20033;-73
2022/04/27 14:52:33;;;;;;;8.55;2.35;;;;;;;;;;5026191;28;20128;-73
2022/04/27 14:55:00;;;;;;;10.38;2.30;;;;;;;;;;5026052;28;20025;-73
2022/04/27 14:57:25;;;;;;;8.27;2.78;;;;;;;;;;5023123;28;20136;-72
2022/04/27 14:59:53;;;;;;;8.85;2.42;;;;;;;;;;5022823;28;20041;-73
2022/04/27 15:02:19;;;;;;;7.22;2.50;;;;;;;;;;5023850;28;20472;-71
2022/04/27 15:04:45;;;;;;;10.57;3.15;;;;;;;;;;5005115;28;20504;-72
2022/04/27 15:07:10;;;;;;;5.60;2.38;;;;;;;;;;5026307;28;20424;-72
2022/04/27 15:09:35;;;;;;;8.68;2.67;;;;;;;;;;5005592;28;20257;-72